createdAt,value
2023-05-05T00:00:21.704Z,100849.75
2023-05-05T00:05:23.315Z,100841.63
2023-05-05T00:10:27.025Z,100837.97
2023-05-05T00:15:28.508Z,100833.22
2023-05-05T00:20:30.079Z,100841.22
2023-05-05T00:25:31.599Z,100826.88
2023-05-05T00:30:33.604Z,100828.22
2023-05-05T00:35:35.202Z,100824.38
2023-05-05T00:40:36.991Z,100827.34
2023-05-05T00:45:39.620Z,100816.69
2023-05-05T00:50:43.253Z,100828.75
2023-05-05T00:55:44.766Z,100832.72
2023-05-05T01:00:46.288Z,100823.47
2023-05-05T01:06:06.141Z,100830.19
2023-05-05T01:11:17.297Z,100831.22
2023-05-05T01:16:23.631Z,100839.38
2023-05-05T01:21:38.152Z,100838.03
2023-05-05T01:27:19.585Z,100837.31
2023-05-05T01:32:28.074Z,100831.94
2023-05-05T01:37:43.335Z,100837.41
2023-05-05T01:42:48.229Z,100837.13
2023-05-05T01:47:52.438Z,100840.03
2023-05-05T01:52:56.089Z,100849.00
2023-05-05T01:57:59.395Z,100853.78
2023-05-05T02:03:03.511Z,100856.72
2023-05-05T02:08:06.001Z,100855.97
2023-05-05T02:13:10.495Z,100857.63
2023-05-05T02:18:12.992Z,100859.69
2023-05-05T02:23:14.507Z,100860.28
2023-05-05T02:28:21.157Z,100860.69
2023-05-05T02:33:23.524Z,100864.16
2023-05-05T02:38:28.608Z,100873.28
2023-05-05T02:43:37.586Z,100873.09
2023-05-05T02:48:39.426Z,100881.38
2023-05-05T02:53:41.069Z,100884.44
2023-05-05T02:58:56.883Z,100884.81
2023-05-05T03:04:01.794Z,100886.00
2023-05-05T03:09:12.712Z,100902.00
2023-05-05T03:14:19.687Z,100892.28
2023-05-05T03:19:24.308Z,100895.09
2023-05-05T03:24:30.951Z,100894.75
2023-05-05T03:29:38.582Z,100894.19
2023-05-05T03:34:44.879Z,100907.38
2023-05-05T03:39:46.555Z,100903.56
2023-05-05T03:44:48.767Z,100894.22
2023-05-05T03:49:50.625Z,100897.25
2023-05-05T03:54:52.338Z,100901.09
2023-05-05T03:59:53.914Z,100899.22
2023-05-05T04:04:55.473Z,100901.25
2023-05-05T04:09:57.325Z,100899.22
2023-05-05T04:14:58.972Z,100908.97
2023-05-05T04:20:00.617Z,100917.69
2023-05-05T04:25:02.582Z,100929.06
2023-05-05T04:30:04.930Z,100927.28
2023-05-05T04:35:08.336Z,100930.13
2023-05-05T04:40:10.384Z,100944.47
2023-05-05T04:45:13.686Z,100941.00
2023-05-05T04:50:16.099Z,100945.09
2023-05-05T04:55:17.784Z,100942.13
2023-05-05T05:00:19.409Z,100939.78
2023-05-05T05:05:20.937Z,100944.94
2023-05-05T05:10:22.559Z,100958.41
2023-05-05T05:15:27.579Z,100961.31
2023-05-05T05:20:30.721Z,100960.34
2023-05-05T05:25:32.294Z,100976.16
2023-05-05T05:30:34.321Z,100986.38
2023-05-05T05:35:38.576Z,100977.91
2023-05-05T05:40:40.845Z,100981.41
2023-05-05T05:45:42.849Z,100982.44
2023-05-05T05:50:44.992Z,100985.69
2023-05-05T05:55:46.732Z,100981.47
2023-05-05T06:00:49.181Z,100985.84
2023-05-05T06:05:51.143Z,100981.41
2023-05-05T06:10:53.761Z,100987.75
2023-05-05T06:15:56.092Z,100997.41
2023-05-05T06:20:58.255Z,101003.56
2023-05-05T06:26:02.644Z,101001.53
2023-05-05T06:31:04.191Z,101014.91
2023-05-05T06:36:05.885Z,101012.81
2023-05-05T06:41:07.525Z,101020.69
2023-05-05T06:46:09.089Z,101014.56
2023-05-05T06:51:10.567Z,101017.31
2023-05-05T06:56:12.109Z,101012.06
2023-05-05T07:01:13.668Z,101021.38
2023-05-05T07:06:15.185Z,101027.63
2023-05-05T07:11:16.709Z,101036.25
2023-05-05T07:16:18.264Z,101045.28
2023-05-05T07:21:19.854Z,101051.19
2023-05-05T07:26:21.404Z,101049.66
2023-05-05T07:31:23.279Z,101044.16
2023-05-05T07:36:24.924Z,101047.75
2023-05-05T07:41:26.596Z,101044.41
2023-05-05T07:46:28.291Z,101043.53
2023-05-05T07:51:29.853Z,101036.63
2023-05-05T07:56:31.509Z,101042.78
2023-05-05T08:01:33.102Z,101039.00
2023-05-05T08:06:34.596Z,101046.84
2023-05-05T08:11:36.173Z,101045.75
2023-05-05T08:16:37.797Z,101052.47
2023-05-05T08:21:39.295Z,101056.31
2023-05-05T08:26:40.835Z,101051.59
2023-05-05T08:31:42.389Z,101057.16
2023-05-05T08:36:43.938Z,101052.72
2023-05-05T08:41:45.470Z,101051.34
2023-05-05T08:46:49.144Z,101048.88
2023-05-05T08:51:52.099Z,101041.47
2023-05-05T08:56:55.169Z,101052.50
2023-05-05T09:01:58.389Z,101053.31
2023-05-05T09:07:00.453Z,101055.88
2023-05-05T09:12:02.371Z,101055.88
2023-05-05T09:17:04.094Z,101059.31
2023-05-05T09:22:05.704Z,101054.38
2023-05-05T09:27:21.559Z,101052.06
2023-05-05T09:32:23.145Z,101043.47
2023-05-05T09:37:31.428Z,101039.59
2023-05-05T09:42:32.961Z,101040.47
2023-05-05T09:47:37.638Z,101035.81
2023-05-05T09:52:39.281Z,101032.81
2023-05-05T09:57:40.790Z,101032.50
2023-05-05T10:02:42.431Z,101035.41
2023-05-05T10:07:45.759Z,101038.41
2023-05-05T10:12:48.460Z,101028.50
2023-05-05T10:18:06.186Z,101024.50
2023-05-05T10:23:14.971Z,101011.53
2023-05-05T10:28:21.452Z,101000.16
2023-05-05T10:33:32.324Z,100990.84
2023-05-05T10:38:35.383Z,100984.03
2023-05-05T10:43:37.407Z,100981.50
2023-05-05T10:48:57.452Z,100982.00
2023-05-05T10:54:07.848Z,100979.06
2023-05-05T10:59:37.301Z,100974.00
2023-05-05T11:04:38.803Z,100964.31
2023-05-05T11:09:56.635Z,100942.72
2023-05-05T11:15:24.139Z,100934.13
2023-05-05T11:20:37.677Z,100945.88
2023-05-05T11:25:39.123Z,100969.66
2023-05-05T11:30:56.132Z,100994.75
2023-05-05T11:36:00.986Z,101053.56
2023-05-05T11:41:26.160Z,101053.06
2023-05-05T11:46:27.700Z,101028.56
2023-05-05T11:51:29.224Z,101011.69
2023-05-05T11:56:30.742Z,100994.97
2023-05-05T12:01:32.889Z,100979.09
2023-05-05T12:06:34.453Z,100980.38
2023-05-05T12:11:50.679Z,100975.25
2023-05-05T12:16:58.924Z,100991.22
2023-05-05T12:22:01.503Z,100997.06
2023-05-05T12:27:10.651Z,100990.16
2023-05-05T12:32:25.708Z,100991.16
2023-05-05T12:37:27.498Z,100994.78
2023-05-05T12:42:29.226Z,101000.47
2023-05-05T12:47:32.538Z,101006.75
2023-05-05T12:52:44.846Z,100992.09
2023-05-05T12:58:02.033Z,100993.00
2023-05-05T13:03:03.699Z,101001.63
2023-05-05T13:08:05.355Z,100989.22
2023-05-05T13:13:06.882Z,100997.66
2023-05-05T13:18:08.506Z,100996.53
2023-05-05T13:23:10.055Z,101002.63
2023-05-05T13:28:11.574Z,101008.81
2023-05-05T13:33:13.061Z,100990.50
2023-05-05T13:38:14.586Z,100988.59
2023-05-05T13:43:16.068Z,100983.03
2023-05-05T13:48:17.560Z,100972.94
2023-05-05T13:53:19.049Z,100959.22
2023-05-05T13:58:20.559Z,100953.09
2023-05-05T14:03:22.180Z,100953.72
2023-05-05T14:08:23.735Z,100951.16
2023-05-05T14:13:25.317Z,100949.69
2023-05-05T14:18:26.990Z,100944.56
2023-05-05T14:23:28.594Z,100944.97
2023-05-05T14:28:30.130Z,100945.84
2023-05-05T14:33:31.685Z,100936.34
2023-05-05T14:38:33.257Z,100925.94
2023-05-05T14:43:35.167Z,100935.78
2023-05-05T14:48:36.753Z,100931.28
2023-05-05T14:53:38.258Z,100951.84
2023-05-05T14:58:39.873Z,100944.78
2023-05-05T15:03:41.581Z,100945.19
2023-05-05T15:08:44.422Z,100947.72
2023-05-05T15:13:46.164Z,100950.63
2023-05-05T15:18:47.853Z,100962.56
2023-05-05T15:23:49.435Z,100970.28
2023-05-05T15:28:50.920Z,100977.72
2023-05-05T15:33:52.526Z,100973.56
2023-05-05T15:38:55.070Z,100973.84
2023-05-05T15:43:56.690Z,100970.19
2023-05-05T15:48:58.187Z,100973.41
2023-05-05T15:53:59.831Z,100978.47
2023-05-05T15:59:01.359Z,100972.53
2023-05-05T16:04:02.981Z,100973.00
2023-05-05T16:09:04.747Z,100973.78
2023-05-05T16:14:06.431Z,100977.06
2023-05-05T16:19:07.985Z,100982.28
2023-05-05T16:24:09.576Z,100994.84
2023-05-05T16:29:12.083Z,100987.22
2023-05-05T16:34:13.715Z,100993.03
2023-05-05T16:39:15.231Z,100980.88
2023-05-05T16:44:16.957Z,100977.78
2023-05-05T16:49:18.659Z,100967.19
2023-05-05T16:54:20.193Z,100970.94
2023-05-05T16:59:21.745Z,100961.75
2023-05-05T17:04:23.293Z,100970.34
2023-05-05T17:09:24.856Z,100970.50
2023-05-05T17:14:26.400Z,100974.16
2023-05-05T17:19:27.945Z,100960.59
2023-05-05T17:24:29.708Z,100959.25
2023-05-05T17:29:31.337Z,100962.25
2023-05-05T17:34:32.892Z,100963.06
2023-05-05T17:39:34.567Z,100962.69
2023-05-05T17:44:36.211Z,100970.41
2023-05-05T17:49:37.809Z,100972.53
2023-05-05T17:54:39.278Z,100967.69
2023-05-05T17:59:40.973Z,100988.81
2023-05-05T18:04:42.600Z,100991.88
2023-05-05T18:09:44.294Z,100991.81
2023-05-05T18:14:45.802Z,100992.66
2023-05-05T18:19:49.061Z,101023.88
2023-05-05T18:24:50.801Z,101032.72
2023-05-05T18:29:52.657Z,101037.72
2023-05-05T18:34:54.200Z,101045.72
2023-05-05T18:39:56.055Z,101043.00
2023-05-05T18:44:57.755Z,101044.28
2023-05-05T18:49:59.258Z,101042.06
2023-05-05T18:55:00.797Z,101032.28
2023-05-05T19:00:02.458Z,101039.47
2023-05-05T19:05:04.264Z,101038.00
2023-05-05T19:10:06.567Z,101042.47
2023-05-05T19:15:08.706Z,101036.41
2023-05-05T19:20:10.882Z,101044.34
2023-05-05T19:25:13.953Z,101037.25
2023-05-05T19:30:15.547Z,101029.53
2023-05-05T19:35:17.311Z,101028.13
2023-05-05T19:40:18.898Z,101040.72
2023-05-05T19:45:20.415Z,101032.19
2023-05-05T19:50:22.204Z,101037.28
2023-05-05T19:55:23.848Z,101046.81
2023-05-05T20:00:25.453Z,101039.31
2023-05-05T20:05:27.021Z,101044.16
2023-05-05T20:10:28.582Z,101050.03
2023-05-05T20:15:31.419Z,101054.69
2023-05-05T20:20:34.200Z,101052.66
2023-05-05T20:25:35.713Z,101059.16
2023-05-05T20:30:37.226Z,101047.78
2023-05-05T20:35:38.787Z,101054.03
2023-05-05T20:40:40.690Z,101061.09
2023-05-05T20:45:42.223Z,101060.66
2023-05-05T20:50:43.786Z,101056.97
2023-05-05T20:55:45.452Z,101059.56
2023-05-05T21:00:47.027Z,101056.13
2023-05-05T21:05:48.610Z,101049.81
2023-05-05T21:10:50.162Z,101056.34
2023-05-05T21:15:51.692Z,101056.81
2023-05-05T21:20:53.445Z,101056.56
2023-05-05T21:25:55.188Z,101065.09
2023-05-05T21:31:19.621Z,101061.25
2023-05-05T21:36:18.288Z,101060.50
2023-05-05T21:41:19.841Z,101055.81
2023-05-05T21:46:21.467Z,101064.34
2023-05-05T21:51:22.982Z,101067.00
2023-05-05T21:56:24.529Z,101049.13
2023-05-05T22:01:26.189Z,101059.88
2023-05-05T22:06:27.711Z,101069.16
2023-05-05T22:11:29.230Z,101067.53
2023-05-05T22:16:30.747Z,101061.06
2023-05-05T22:21:32.341Z,101065.09
2023-05-05T22:26:33.971Z,101062.44
2023-05-05T22:31:36.260Z,101062.81
2023-05-05T22:36:37.805Z,101072.38
2023-05-05T22:41:39.343Z,101067.72
2023-05-05T22:46:40.997Z,101065.69
2023-05-05T22:51:42.604Z,101065.66
2023-05-05T22:56:44.172Z,101071.66
2023-05-05T23:01:45.678Z,101060.53
2023-05-05T23:06:47.184Z,101067.06
2023-05-05T23:11:48.677Z,101055.91
2023-05-05T23:16:50.315Z,101052.63
2023-05-05T23:21:53.601Z,101053.59
2023-05-05T23:26:58.227Z,101059.09
2023-05-05T23:31:59.736Z,101060.94
2023-05-05T23:37:01.271Z,101061.38
2023-05-05T23:42:02.760Z,101058.97
2023-05-05T23:47:04.327Z,101059.41
2023-05-05T23:52:05.847Z,101054.94
2023-05-05T23:57:07.420Z,101051.31
